createdAt,value
2022-09-25T00:00:37.328Z,74.44
2022-09-25T00:01:37.327Z,74.44
2022-09-25T00:02:37.341Z,74.24
2022-09-25T00:03:37.282Z,74.24
2022-09-25T00:04:37.271Z,74.24
2022-09-25T00:05:37.278Z,74.24
2022-09-25T00:06:37.249Z,74.44
2022-09-25T00:07:37.238Z,74.24
2022-09-25T00:08:37.229Z,74.34
2022-09-25T00:09:37.215Z,74.78
2022-09-25T00:10:37.207Z,74.68
2022-09-25T00:11:37.206Z,74.88
2022-09-25T00:12:37.185Z,74.88
2022-09-25T00:13:37.200Z,75.19
2022-09-25T00:14:37.177Z,75.29
2022-09-25T00:15:37.149Z,75.09
2022-09-25T00:16:37.195Z,75.05
2022-09-25T00:17:37.134Z,74.85
2022-09-25T00:18:40.094Z,74.95
2022-09-25T00:19:37.106Z,74.95
2022-09-25T00:20:37.097Z,74.95
2022-09-25T00:21:37.096Z,75.15
2022-09-25T00:22:37.081Z,75.35
2022-09-25T00:23:37.064Z,75.25
2022-09-25T00:24:37.055Z,75.15
2022-09-25T00:25:37.041Z,74.85
2022-09-25T00:26:37.048Z,74.54
2022-09-25T00:27:37.021Z,74.54
2022-09-25T00:28:37.010Z,74.14
2022-09-25T00:29:37.017Z,74.54
2022-09-25T00:30:37.078Z,74.44
2022-09-25T00:31:36.993Z,74.24
2022-09-25T00:32:37.000Z,74.68
2022-09-25T00:33:36.970Z,74.48
2022-09-25T00:34:36.945Z,74.58
2022-09-25T00:35:36.935Z,74.24
2022-09-25T00:36:36.932Z,74.48
2022-09-25T00:37:36.912Z,74.78
2022-09-25T00:38:36.903Z,74.58
2022-09-25T00:39:36.890Z,74.48
2022-09-25T00:40:36.955Z,74.48
2022-09-25T00:41:36.878Z,74.51
2022-09-25T00:42:36.858Z,74.78
2022-09-25T00:43:36.847Z,74.58
2022-09-25T00:44:36.848Z,74.48
2022-09-25T00:45:36.842Z,74.31
2022-09-25T00:46:36.922Z,74.27
2022-09-25T00:47:36.803Z,74.31
2022-09-25T00:48:36.797Z,74.51
2022-09-25T00:49:36.785Z,74.10
2022-09-25T00:50:36.773Z,74.41
2022-09-25T00:51:36.774Z,74.21
2022-09-25T00:52:36.751Z,74.41
2022-09-25T00:53:36.736Z,74.31
2022-09-25T00:54:36.731Z,74.62
2022-09-25T00:55:36.717Z,74.62
2022-09-25T00:56:36.718Z,74.51
2022-09-25T00:57:36.694Z,74.10
2022-09-25T00:58:36.685Z,74.10
2022-09-25T00:59:36.679Z,74.31
2022-09-25T01:00:36.666Z,74.10
2022-09-25T01:01:36.822Z,73.90
2022-09-25T01:02:36.837Z,74.01
2022-09-25T01:03:36.660Z,74.10
2022-09-25T01:04:36.621Z,73.29
2022-09-25T01:05:36.611Z,72.99
2022-09-25T01:06:36.611Z,73.09
2022-09-25T01:07:36.587Z,72.69
2022-09-25T01:08:36.577Z,73.09
2022-09-25T01:09:36.565Z,72.58
2022-09-25T01:10:36.560Z,73.19
2022-09-25T01:11:36.554Z,73.09
2022-09-25T01:12:36.538Z,72.89
2022-09-25T01:13:36.522Z,73.29
2022-09-25T01:14:36.513Z,72.58
2022-09-25T01:15:36.500Z,72.08
2022-09-25T01:16:36.556Z,72.41
2022-09-25T01:17:36.497Z,72.89
2022-09-25T01:18:36.517Z,72.92
2022-09-25T01:19:36.455Z,72.72
2022-09-25T01:20:36.505Z,72.82
2022-09-25T01:21:36.447Z,72.82
2022-09-25T01:22:36.446Z,72.62
2022-09-25T01:23:36.414Z,73.02
2022-09-25T01:24:36.407Z,72.82
2022-09-25T01:25:36.393Z,72.72
2022-09-25T01:26:36.442Z,72.82
2022-09-25T01:27:36.370Z,72.82
2022-09-25T01:28:36.361Z,72.41
2022-09-25T01:29:36.349Z,72.62
2022-09-25T01:30:36.369Z,72.72
2022-09-25T01:31:36.342Z,72.72
2022-09-25T01:32:36.322Z,72.75
2022-09-25T01:33:36.407Z,73.02
2022-09-25T01:34:36.297Z,72.72
2022-09-25T01:35:36.284Z,73.22
2022-09-25T01:36:36.292Z,73.02
2022-09-25T01:37:36.264Z,73.02
2022-09-25T01:38:36.254Z,73.43
2022-09-25T01:39:36.251Z,73.13
2022-09-25T01:40:36.312Z,73.02
2022-09-25T01:41:36.229Z,73.43
2022-09-25T01:42:36.210Z,72.92
2022-09-25T01:43:36.199Z,73.33
2022-09-25T01:44:36.194Z,73.16
2022-09-25T01:45:36.282Z,73.60
2022-09-25T01:46:36.274Z,73.80
2022-09-25T01:47:36.155Z,74.01
2022-09-25T01:48:36.148Z,74.01
2022-09-25T01:49:36.169Z,74.41
2022-09-25T01:50:36.123Z,73.60
2022-09-25T01:51:36.123Z,73.60
2022-09-25T01:52:36.109Z,73.19
2022-09-25T01:53:36.092Z,73.26
2022-09-25T01:54:36.084Z,73.26
2022-09-25T01:55:36.072Z,73.30
2022-09-25T01:56:36.074Z,72.96
2022-09-25T01:57:36.047Z,73.16
2022-09-25T01:58:36.038Z,73.36
2022-09-25T01:59:36.025Z,73.57
2022-09-25T02:00:36.016Z,73.57
2022-09-25T02:01:36.190Z,73.57
2022-09-25T02:02:36.069Z,73.57
2022-09-25T02:03:35.980Z,73.77
2022-09-25T02:04:35.971Z,73.77
2022-09-25T02:05:35.979Z,73.77
2022-09-25T02:06:35.967Z,73.97
2022-09-25T02:07:35.941Z,73.97
2022-09-25T02:08:35.928Z,74.11
2022-09-25T02:09:35.921Z,73.91
2022-09-25T02:10:35.922Z,74.01
2022-09-25T02:11:35.910Z,73.97
2022-09-25T02:12:35.883Z,74.07
2022-09-25T02:13:35.876Z,74.38
2022-09-25T02:14:35.865Z,74.18
2022-09-25T02:15:35.853Z,74.18
2022-09-25T02:16:35.970Z,73.97
2022-09-25T02:17:35.832Z,73.97
2022-09-25T02:18:35.828Z,74.18
2022-09-25T02:19:35.810Z,74.48
2022-09-25T02:20:35.801Z,74.38
2022-09-25T02:21:35.817Z,74.68
2022-09-25T02:22:35.776Z,74.58
2022-09-25T02:23:35.767Z,74.68
2022-09-25T02:24:35.757Z,74.68
2022-09-25T02:25:35.746Z,74.79
2022-09-25T02:26:35.771Z,74.79
2022-09-25T02:27:35.724Z,75.09
2022-09-25T02:28:35.717Z,75.29
2022-09-25T02:29:35.737Z,74.88
2022-09-25T02:30:35.738Z,74.79
2022-09-25T02:31:35.743Z,75.29
2022-09-25T02:32:35.672Z,75.29
2022-09-25T02:33:35.660Z,74.55
2022-09-25T02:34:35.648Z,74.88
2022-09-25T02:35:35.639Z,74.79
2022-09-25T02:36:35.643Z,74.48
2022-09-25T02:37:35.642Z,74.38
2022-09-25T02:38:35.605Z,74.38
2022-09-25T02:39:35.595Z,74.38
2022-09-25T02:40:35.608Z,73.97
2022-09-25T02:41:35.589Z,74.38
2022-09-25T02:42:35.561Z,74.28
2022-09-25T02:43:35.551Z,74.38
2022-09-25T02:44:35.540Z,74.48
2022-09-25T02:45:35.572Z,74.72
2022-09-25T02:46:35.534Z,74.52
2022-09-25T02:47:35.510Z,74.92
2022-09-25T02:48:35.497Z,75.12
2022-09-25T02:49:35.489Z,75.23
2022-09-25T02:50:35.474Z,75.43
2022-09-25T02:51:35.477Z,75.37
2022-09-25T02:52:35.454Z,75.73
2022-09-25T02:53:35.467Z,75.57
2022-09-25T02:54:35.433Z,75.57
2022-09-25T02:55:35.423Z,75.63
2022-09-25T02:56:35.418Z,76.07
2022-09-25T02:57:35.401Z,75.84
2022-09-25T02:58:35.389Z,75.73
2022-09-25T02:59:35.380Z,75.84
2022-09-25T03:00:35.367Z,75.73
2022-09-25T03:01:35.451Z,75.94
2022-09-25T03:02:35.428Z,76.07
2022-09-25T03:03:35.335Z,76.59
2022-09-25T03:04:35.324Z,76.28
2022-09-25T03:05:35.315Z,76.89
2022-09-25T03:06:35.315Z,76.28
2022-09-25T03:07:35.296Z,77.09
2022-09-25T03:08:35.280Z,76.59
2022-09-25T03:09:35.308Z,76.28
2022-09-25T03:10:35.259Z,76.79
2022-09-25T03:11:35.265Z,76.89
2022-09-25T03:12:35.238Z,76.48
2022-09-25T03:13:35.230Z,76.38
2022-09-25T03:14:35.217Z,76.68
2022-09-25T03:15:35.211Z,76.48
2022-09-25T03:16:35.265Z,76.38
2022-09-25T03:17:35.186Z,76.18
2022-09-25T03:18:35.174Z,75.87
2022-09-25T03:19:35.164Z,76.59
2022-09-25T03:20:35.155Z,76.48
2022-09-25T03:21:35.152Z,75.87
2022-09-25T03:22:35.130Z,76.48
2022-09-25T03:23:35.156Z,76.48
2022-09-25T03:24:35.109Z,76.28
2022-09-25T03:25:35.116Z,76.38
2022-09-25T03:26:35.095Z,75.98
2022-09-25T03:27:35.079Z,76.14
2022-09-25T03:28:35.065Z,76.34
2022-09-25T03:29:35.055Z,76.48
2022-09-25T03:30:35.076Z,76.28
2022-09-25T03:31:35.042Z,76.25
2022-09-25T03:32:35.019Z,76.25
2022-09-25T03:33:35.012Z,76.45
2022-09-25T03:34:35.002Z,76.75
2022-09-25T03:35:34.992Z,76.28
2022-09-25T03:36:34.993Z,76.89
2022-09-25T03:37:34.969Z,76.89
2022-09-25T03:38:34.965Z,76.28
2022-09-25T03:39:34.947Z,77.09
2022-09-25T03:40:35.016Z,76.68
2022-09-25T03:41:34.951Z,76.99
2022-09-25T03:42:34.913Z,76.99
2022-09-25T03:43:34.902Z,77.20
2022-09-25T03:44:34.890Z,77.81
2022-09-25T03:45:34.883Z,77.50
2022-09-25T03:46:34.982Z,77.70
2022-09-25T03:47:34.859Z,77.06
2022-09-25T03:48:34.850Z,77.70
2022-09-25T03:49:34.838Z,77.60
2022-09-25T03:50:34.839Z,77.60
2022-09-25T03:51:34.817Z,77.70
2022-09-25T03:52:34.804Z,77.81
2022-09-25T03:53:34.802Z,77.40
2022-09-25T03:54:34.785Z,77.81
2022-09-25T03:55:34.787Z,78.01
2022-09-25T03:56:34.761Z,78.01
2022-09-25T03:57:34.853Z,77.50
2022-09-25T03:58:34.739Z,77.60
2022-09-25T03:59:34.739Z,77.91
2022-09-25T04:00:34.729Z,77.60
2022-09-25T04:01:34.836Z,77.91
2022-09-25T04:02:34.794Z,78.01
2022-09-25T04:03:34.697Z,78.01
2022-09-25T04:04:34.674Z,77.81
2022-09-25T04:05:34.681Z,77.91
2022-09-25T04:06:34.657Z,77.50
2022-09-25T04:07:34.642Z,77.60
2022-09-25T04:08:34.631Z,78.11
2022-09-25T04:09:34.627Z,78.31
2022-09-25T04:10:34.619Z,78.31
2022-09-25T04:11:34.599Z,78.01
2022-09-25T04:12:34.587Z,78.31
2022-09-25T04:13:34.599Z,78.11
2022-09-25T04:14:34.576Z,78.01
2022-09-25T04:15:34.566Z,78.31
2022-09-25T04:16:34.630Z,78.15
2022-09-25T04:17:34.535Z,78.01
2022-09-25T04:18:34.540Z,78.11
2022-09-25T04:19:34.519Z,77.91
2022-09-25T04:20:34.521Z,77.91
2022-09-25T04:21:34.493Z,77.91
2022-09-25T04:22:34.483Z,78.52
2022-09-25T04:23:34.471Z,78.41
2022-09-25T04:24:34.462Z,78.11
2022-09-25T04:25:34.473Z,78.01
2022-09-25T04:26:34.440Z,78.11
2022-09-25T04:27:34.429Z,78.31
2022-09-25T04:28:34.414Z,78.41
2022-09-25T04:29:34.425Z,78.41
2022-09-25T04:30:34.392Z,78.41
2022-09-25T04:31:34.478Z,78.41
2022-09-25T04:32:34.372Z,78.31
2022-09-25T04:33:34.364Z,78.11
2022-09-25T04:34:34.350Z,78.01
2022-09-25T04:35:34.342Z,78.41
2022-09-25T04:36:34.339Z,78.52
2022-09-25T04:37:34.335Z,77.91
2022-09-25T04:38:34.305Z,77.81
2022-09-25T04:39:34.296Z,77.91
2022-09-25T04:40:34.314Z,77.91
2022-09-25T04:41:34.287Z,77.91
2022-09-25T04:42:34.261Z,78.01
2022-09-25T04:43:34.253Z,78.41
2022-09-25T04:44:34.241Z,78.01
2022-09-25T04:45:34.332Z,78.01
2022-09-25T04:46:34.256Z,78.11
2022-09-25T04:47:34.210Z,78.01
2022-09-25T04:48:34.205Z,78.01
2022-09-25T04:49:34.188Z,78.41
2022-09-25T04:50:34.202Z,78.62
2022-09-25T04:51:34.170Z,78.52
2022-09-25T04:52:34.156Z,78.55
2022-09-25T04:53:34.146Z,78.41
2022-09-25T04:54:34.142Z,78.52
2022-09-25T04:55:34.136Z,78.62
2022-09-25T04:56:34.120Z,78.52
2022-09-25T04:57:57.198Z,78.45
2022-09-25T04:58:35.087Z,78.31
2022-09-25T04:59:34.080Z,78.62
2022-09-25T05:00:34.079Z,78.31
2022-09-25T05:01:34.345Z,78.66
2022-09-25T05:02:34.235Z,78.45
2022-09-25T05:03:34.102Z,78.66
2022-09-25T05:04:34.021Z,78.62
2022-09-25T05:05:34.025Z,78.55
2022-09-25T05:06:34.000Z,78.62
2022-09-25T05:07:33.996Z,78.41
2022-09-25T05:08:33.980Z,78.72
2022-09-25T05:09:33.970Z,78.92
2022-09-25T05:10:33.969Z,78.66
2022-09-25T05:11:33.950Z,78.72
2022-09-25T05:12:33.946Z,79.02
2022-09-25T05:13:33.926Z,78.62
2022-09-25T05:14:33.925Z,78.41
2022-09-25T05:15:33.917Z,78.41
2022-09-25T05:16:33.998Z,78.52
2022-09-25T05:17:33.982Z,77.91
2022-09-25T05:18:33.879Z,78.01
2022-09-25T05:19:33.866Z,78.11
2022-09-25T05:20:33.866Z,78.41
2022-09-25T05:21:33.840Z,78.31
2022-09-25T05:22:33.828Z,78.62
2022-09-25T05:23:33.817Z,78.21
2022-09-25T05:24:33.807Z,78.41
2022-09-25T05:25:33.811Z,78.48
2022-09-25T05:26:33.784Z,78.17
2022-09-25T05:27:33.781Z,78.62
2022-09-25T05:28:33.765Z,78.21
2022-09-25T05:29:33.850Z,78.48
2022-09-25T05:30:33.756Z,78.52
2022-09-25T05:31:33.801Z,77.91
2022-09-25T05:32:33.719Z,78.41
2022-09-25T05:33:33.735Z,78.28
2022-09-25T05:34:33.713Z,77.77
2022-09-25T05:35:33.694Z,77.47
2022-09-25T05:36:33.674Z,77.47
2022-09-25T05:37:33.668Z,77.77
2022-09-25T05:38:33.656Z,77.87
2022-09-25T05:39:33.656Z,78.17
2022-09-25T05:40:33.737Z,78.28
2022-09-25T05:41:33.621Z,77.97
2022-09-25T05:42:33.612Z,77.77
2022-09-25T05:43:33.621Z,77.67
2022-09-25T05:44:33.606Z,77.16
2022-09-25T05:45:33.579Z,77.06
2022-09-25T05:46:33.641Z,77.06
2022-09-25T05:47:33.558Z,76.72
2022-09-25T05:48:33.546Z,76.51
2022-09-25T05:49:33.562Z,76.10
2022-09-25T05:50:33.527Z,76.21
2022-09-25T05:51:33.517Z,76.01
2022-09-25T05:52:33.501Z,76.51
2022-09-25T05:53:33.492Z,76.61
2022-09-25T05:54:33.494Z,76.82
2022-09-25T05:55:33.469Z,76.31
2022-09-25T05:56:33.459Z,76.51
2022-09-25T05:57:33.449Z,76.61
2022-09-25T05:58:33.450Z,76.51
2022-09-25T05:59:33.432Z,76.21
2022-09-25T06:00:33.506Z,76.28
2022-09-25T06:01:33.495Z,76.28
2022-09-25T06:02:33.486Z,76.37
2022-09-25T06:03:33.396Z,76.17
2022-09-25T06:04:33.370Z,75.67
2022-09-25T06:05:33.382Z,75.16
2022-09-25T06:06:33.350Z,75.26
2022-09-25T06:07:33.339Z,75.16
2022-09-25T06:08:33.338Z,74.95
2022-09-25T06:09:33.321Z,75.40
2022-09-25T06:10:33.305Z,75.05
2022-09-25T06:11:33.296Z,75.67
2022-09-25T06:12:33.283Z,75.36
2022-09-25T06:13:33.288Z,75.16
2022-09-25T06:14:33.262Z,75.36
2022-09-25T06:15:33.253Z,74.95
2022-09-25T06:16:33.295Z,75.16
2022-09-25T06:17:33.231Z,75.67
2022-09-25T06:18:41.221Z,75.52
2022-09-25T06:19:33.210Z,75.49
2022-09-25T06:20:33.198Z,74.74
2022-09-25T06:21:33.207Z,73.90
2022-09-25T06:22:33.177Z,73.16
2022-09-25T06:23:33.177Z,71.50
2022-09-25T06:24:33.157Z,70.25
2022-09-25T06:25:33.191Z,70.15
2022-09-25T06:26:33.136Z,69.65
2022-09-25T06:27:33.122Z,69.54
2022-09-25T06:28:33.221Z,69.95
2022-09-25T06:29:33.101Z,69.54
2022-09-25T06:30:33.091Z,68.33
2022-09-25T06:31:33.121Z,67.82
2022-09-25T06:32:33.066Z,68.02
2022-09-25T06:33:33.069Z,68.87
2022-09-25T06:34:33.048Z,69.07
2022-09-25T06:35:33.035Z,69.48
2022-09-25T06:36:33.025Z,69.34
2022-09-25T06:37:33.032Z,69.54
2022-09-25T06:38:33.014Z,69.95
2022-09-25T06:39:32.991Z,69.74
2022-09-25T06:40:33.082Z,69.85
2022-09-25T06:41:32.968Z,69.85
2022-09-25T06:42:32.960Z,69.88
2022-09-25T06:43:32.957Z,69.44
2022-09-25T06:44:32.939Z,69.68
2022-09-25T06:45:32.927Z,69.95
2022-09-25T06:46:32.968Z,69.17
2022-09-25T06:47:32.903Z,69.04
2022-09-25T06:48:32.913Z,69.24
2022-09-25T06:49:32.881Z,69.04
2022-09-25T06:50:32.872Z,69.34
2022-09-25T06:51:32.858Z,69.65
2022-09-25T06:52:32.849Z,68.60
2022-09-25T06:53:32.865Z,67.72
2022-09-25T06:54:32.827Z,67.62
2022-09-25T06:55:32.817Z,67.79
2022-09-25T06:56:32.805Z,67.79
2022-09-25T06:57:32.792Z,68.13
2022-09-25T06:58:32.800Z,67.82
2022-09-25T06:59:32.770Z,68.53
2022-09-25T07:00:32.760Z,68.73
2022-09-25T07:01:32.818Z,69.10
2022-09-25T07:02:32.797Z,68.63
2022-09-25T07:03:32.736Z,69.44
2022-09-25T07:04:32.721Z,68.63
2022-09-25T07:05:32.708Z,69.44
2022-09-25T07:06:32.697Z,69.74
2022-09-25T07:07:32.683Z,69.65
2022-09-25T07:08:32.687Z,69.85
2022-09-25T07:09:32.693Z,69.41
2022-09-25T07:10:32.652Z,67.55
2022-09-25T07:11:32.640Z,67.15
2022-09-25T07:12:32.631Z,67.43
2022-09-25T07:13:32.629Z,67.66
2022-09-25T07:14:32.610Z,67.32
2022-09-25T07:15:32.699Z,66.64
2022-09-25T07:16:32.779Z,66.11
2022-09-25T07:17:32.574Z,66.55
2022-09-25T07:18:32.575Z,66.64
2022-09-25T07:19:32.554Z,66.64
2022-09-25T07:20:32.544Z,66.75
2022-09-25T07:21:32.762Z,67.69
2022-09-25T07:22:32.522Z,67.59
2022-09-25T07:23:32.520Z,67.76
2022-09-25T07:24:32.499Z,67.59
2022-09-25T07:25:32.516Z,67.76
2022-09-25T07:26:32.480Z,67.25
2022-09-25T07:27:32.468Z,66.82
2022-09-25T07:28:32.469Z,66.69
2022-09-25T07:29:32.445Z,66.48
2022-09-25T07:30:32.434Z,66.08
2022-09-25T07:31:32.455Z,65.64
2022-09-25T07:32:32.416Z,66.15
2022-09-25T07:33:32.411Z,65.54
2022-09-25T07:34:32.392Z,65.24
2022-09-25T07:35:32.378Z,65.54
2022-09-25T07:36:32.372Z,64.94
2022-09-25T07:37:32.356Z,65.04
2022-09-25T07:38:32.358Z,64.90
2022-09-25T07:39:32.337Z,65.61
2022-09-25T07:40:32.409Z,65.71
2022-09-25T07:41:32.330Z,65.41
2022-09-25T07:42:32.337Z,65.38
2022-09-25T07:43:32.306Z,64.78
2022-09-25T07:44:37.965Z,64.67
2022-09-25T07:45:33.268Z,64.27
2022-09-25T07:46:32.325Z,64.37
2022-09-25T07:47:32.250Z,64.17
2022-09-25T07:48:32.256Z,63.36
2022-09-25T07:49:32.229Z,63.76
2022-09-25T07:50:32.249Z,64.17
2022-09-25T07:51:32.210Z,64.07
2022-09-25T07:52:32.196Z,64.27
2022-09-25T07:53:32.194Z,64.61
2022-09-25T07:54:32.174Z,64.47
2022-09-25T07:55:32.162Z,64.58
2022-09-25T07:56:32.152Z,64.27
2022-09-25T07:57:32.164Z,64.27
2022-09-25T07:58:32.144Z,64.47
2022-09-25T07:59:32.124Z,64.70
2022-09-25T08:00:32.112Z,65.01
2022-09-25T08:01:32.182Z,65.31
2022-09-25T08:02:32.135Z,65.81
2022-09-25T08:03:32.086Z,65.21
2022-09-25T08:04:32.067Z,65.21
2022-09-25T08:05:32.054Z,65.34
2022-09-25T08:06:32.045Z,65.04
2022-09-25T08:07:32.033Z,65.75
2022-09-25T08:08:32.045Z,65.04
2022-09-25T08:09:32.012Z,65.24
2022-09-25T08:10:32.023Z,65.75
2022-09-25T08:11:31.989Z,65.64
2022-09-25T08:12:31.979Z,66.65
2022-09-25T08:13:32.072Z,66.25
2022-09-25T08:14:31.968Z,66.55
2022-09-25T08:15:31.988Z,66.55
2022-09-25T08:16:31.937Z,66.45
2022-09-25T08:17:31.927Z,66.45
2022-09-25T08:18:31.928Z,66.75
2022-09-25T08:19:31.912Z,66.55
2022-09-25T08:20:31.993Z,66.45
2022-09-25T08:21:31.879Z,66.55
2022-09-25T08:22:31.871Z,66.55
2022-09-25T08:23:31.858Z,66.82
2022-09-25T08:24:31.861Z,66.55
2022-09-25T08:25:31.839Z,66.15
2022-09-25T08:26:31.835Z,66.35
2022-09-25T08:27:31.817Z,66.75
2022-09-25T08:28:31.808Z,66.86
2022-09-25T08:29:31.821Z,66.35
2022-09-25T08:30:31.793Z,66.65
2022-09-25T08:31:31.825Z,66.35
2022-09-25T08:32:31.765Z,66.15
2022-09-25T08:33:31.754Z,66.75
2022-09-25T08:34:47.081Z,67.16
2022-09-25T08:35:32.727Z,67.66
2022-09-25T08:36:31.719Z,67.26
2022-09-25T08:37:31.707Z,67.46
2022-09-25T08:38:31.698Z,66.96
2022-09-25T08:39:31.695Z,67.36
2022-09-25T08:40:31.822Z,66.75
2022-09-25T08:41:31.686Z,66.86
2022-09-25T08:42:31.658Z,67.09
2022-09-25T08:43:31.649Z,67.09
2022-09-25T08:44:31.653Z,67.49
2022-09-25T08:45:31.644Z,67.80
2022-09-25T08:46:31.681Z,67.69
2022-09-25T08:47:31.602Z,67.69
2022-09-25T08:48:31.601Z,67.90
2022-09-25T08:49:31.586Z,67.06
2022-09-25T08:50:31.572Z,66.45
2022-09-25T08:51:31.556Z,67.26
2022-09-25T08:52:31.564Z,66.55
2022-09-25T08:53:31.552Z,66.35
2022-09-25T08:54:31.567Z,66.15
2022-09-25T08:55:31.552Z,66.45
2022-09-25T08:56:31.503Z,66.12
2022-09-25T08:57:31.492Z,66.42
2022-09-25T08:58:31.482Z,66.22
2022-09-25T08:59:31.484Z,65.61
2022-09-25T09:00:31.488Z,65.18
2022-09-25T09:01:31.537Z,65.18
2022-09-25T09:02:31.526Z,65.18
2022-09-25T09:03:31.607Z,65.28
2022-09-25T09:04:31.419Z,65.08
2022-09-25T09:05:31.411Z,65.75
2022-09-25T09:06:31.401Z,65.05
2022-09-25T09:07:31.385Z,65.65
2022-09-25T09:08:31.375Z,65.25
2022-09-25T09:09:31.373Z,65.45
2022-09-25T09:10:31.356Z,65.55
2022-09-25T09:11:31.342Z,65.22
2022-09-25T09:12:31.330Z,64.92
2022-09-25T09:13:31.318Z,65.22
2022-09-25T09:14:31.320Z,64.41
2022-09-25T09:15:31.325Z,64.41
2022-09-25T09:16:31.289Z,64.51
2022-09-25T09:17:31.379Z,64.58
2022-09-25T09:18:31.268Z,65.01
2022-09-25T09:19:31.342Z,64.61
2022-09-25T09:20:31.243Z,64.38
2022-09-25T09:21:31.233Z,64.38
2022-09-25T09:22:31.224Z,64.07
2022-09-25T09:23:31.222Z,64.07
2022-09-25T09:24:31.230Z,64.01
2022-09-25T09:25:31.194Z,64.01
2022-09-25T09:26:31.181Z,64.11
2022-09-25T09:27:31.171Z,64.21
2022-09-25T09:28:31.185Z,64.21
2022-09-25T09:29:31.147Z,64.72
2022-09-25T09:30:31.138Z,64.92
2022-09-25T09:31:31.125Z,64.51
2022-09-25T09:32:31.114Z,64.21
2022-09-25T09:33:31.144Z,64.01
2022-09-25T09:34:53.136Z,64.61
2022-09-25T09:35:33.993Z,64.61
2022-09-25T09:36:31.102Z,64.28
2022-09-25T09:37:31.064Z,64.18
2022-09-25T09:38:31.066Z,63.34
2022-09-25T09:39:31.040Z,63.04
2022-09-25T09:40:31.107Z,63.45
2022-09-25T09:41:31.019Z,62.10
2022-09-25T09:42:31.039Z,62.78
2022-09-25T09:43:31.010Z,61.94
2022-09-25T09:44:30.989Z,61.98
2022-09-25T09:45:30.977Z,61.14
2022-09-25T09:46:30.994Z,60.00
2022-09-25T09:47:30.956Z,59.98
2022-09-25T09:48:30.955Z,58.67
2022-09-25T09:49:30.955Z,59.98
2022-09-25T09:50:30.924Z,59.78
2022-09-25T09:51:30.925Z,60.18
2022-09-25T09:52:30.909Z,59.85
2022-09-25T09:53:30.898Z,59.45
2022-09-25T09:54:30.880Z,59.52
2022-09-25T09:55:30.869Z,58.51
2022-09-25T09:56:30.862Z,57.89
2022-09-25T09:57:30.849Z,57.59
2022-09-25T09:58:30.886Z,56.96
2022-09-25T09:59:30.826Z,56.63
2022-09-25T10:00:30.815Z,57.35
2022-09-25T10:01:46.490Z,57.48
2022-09-25T10:02:31.944Z,57.59
2022-09-25T10:03:30.850Z,57.68
2022-09-25T10:04:30.777Z,57.18
2022-09-25T10:05:30.775Z,57.28
2022-09-25T10:06:30.747Z,57.79
2022-09-25T10:07:31.309Z,57.39
2022-09-25T10:08:30.742Z,57.68
2022-09-25T10:09:30.727Z,57.28
2022-09-25T10:10:30.715Z,56.93
2022-09-25T10:11:30.706Z,56.07
2022-09-25T10:12:30.681Z,54.29
2022-09-25T10:13:30.679Z,52.55
2022-09-25T10:14:30.666Z,52.02
2022-09-25T10:15:30.689Z,52.39
2022-09-25T10:16:30.645Z,52.19
2022-09-25T10:17:30.628Z,51.29
2022-09-25T10:18:30.652Z,50.90
2022-09-25T10:19:30.638Z,51.17
2022-09-25T10:20:30.662Z,51.15
2022-09-25T10:21:30.601Z,50.73
2022-09-25T10:22:30.578Z,50.60
2022-09-25T10:23:30.626Z,50.62
2022-09-25T10:24:30.557Z,50.52
2022-09-25T10:25:30.546Z,51.45
2022-09-25T10:26:30.534Z,51.57
2022-09-25T10:27:30.523Z,51.89
2022-09-25T10:28:30.526Z,52.02
2022-09-25T10:29:30.502Z,53.27
2022-09-25T10:30:30.495Z,54.60
2022-09-25T10:31:30.565Z,55.55
2022-09-25T10:32:30.482Z,55.44
2022-09-25T10:33:30.482Z,54.55
2022-09-25T10:34:30.458Z,54.97
2022-09-25T10:35:30.452Z,55.82
2022-09-25T10:36:30.433Z,56.85
2022-09-25T10:37:30.438Z,57.56
2022-09-25T10:38:30.440Z,57.89
2022-09-25T10:39:44.260Z,58.59
2022-09-25T10:40:31.475Z,59.12
2022-09-25T10:41:30.378Z,59.22
2022-09-25T10:42:30.365Z,59.22
2022-09-25T10:43:30.368Z,57.98
2022-09-25T10:44:30.345Z,58.01
2022-09-25T10:45:30.339Z,58.51
2022-09-25T10:46:30.387Z,59.34
2022-09-25T10:47:30.317Z,60.15
2022-09-25T10:48:30.320Z,59.34
2022-09-25T10:49:30.293Z,59.85
2022-09-25T10:50:30.281Z,59.34
2022-09-25T10:51:30.273Z,59.75
2022-09-25T10:52:30.267Z,60.15
2022-09-25T10:53:30.537Z,60.75
2022-09-25T10:54:30.240Z,59.85
2022-09-25T10:55:30.255Z,60.05
2022-09-25T10:56:30.219Z,60.38
2022-09-25T10:57:30.209Z,60.98
2022-09-25T10:58:30.211Z,61.41
2022-09-25T10:59:30.194Z,61.31
2022-09-25T11:00:30.183Z,60.48
2022-09-25T11:01:30.200Z,60.38
2022-09-25T11:02:30.213Z,61.08
2022-09-25T11:03:30.153Z,61.08
2022-09-25T11:04:30.145Z,60.28
2022-09-25T11:05:30.130Z,60.88
2022-09-25T11:06:30.123Z,60.38
2022-09-25T11:07:30.096Z,60.85
2022-09-25T11:08:30.107Z,61.69
2022-09-25T11:09:30.094Z,61.79
2022-09-25T11:10:30.061Z,62.39
2022-09-25T11:11:30.052Z,62.29
2022-09-25T11:12:30.046Z,62.49
2022-09-25T11:13:30.048Z,61.82
2022-09-25T11:14:30.018Z,61.61
2022-09-25T11:15:30.007Z,62.12
2022-09-25T11:16:30.039Z,61.82
2022-09-25T11:17:29.985Z,61.61
2022-09-25T11:18:29.985Z,61.65
2022-09-25T11:19:29.978Z,62.75
2022-09-25T11:20:30.156Z,62.45
2022-09-25T11:21:29.942Z,61.85
2022-09-25T11:22:29.933Z,61.74
2022-09-25T11:23:29.934Z,62.24
2022-09-25T11:24:29.931Z,62.62
2022-09-25T11:25:29.918Z,62.22
2022-09-25T11:26:29.883Z,61.91
2022-09-25T11:27:29.875Z,62.62
2022-09-25T11:28:29.876Z,62.72
2022-09-25T11:29:29.854Z,62.42
2022-09-25T11:30:29.839Z,61.71
2022-09-25T11:31:29.829Z,61.41
2022-09-25T11:32:29.816Z,60.18
2022-09-25T11:33:29.824Z,59.91
2022-09-25T11:34:29.799Z,60.51
2022-09-25T11:35:29.798Z,60.08
2022-09-25T11:36:29.771Z,59.91
2022-09-25T11:37:29.763Z,60.11
2022-09-25T11:38:29.762Z,59.91
2022-09-25T11:39:29.741Z,60.00
2022-09-25T11:40:29.839Z,59.88
2022-09-25T11:41:29.745Z,59.80
2022-09-25T11:42:29.708Z,60.78
2022-09-25T11:43:29.707Z,60.38
2022-09-25T11:44:29.687Z,60.48
2022-09-25T11:45:29.677Z,60.58
2022-09-25T11:46:29.734Z,60.48
2022-09-25T11:47:29.657Z,61.08
2022-09-25T11:48:29.657Z,60.58
2022-09-25T11:49:29.634Z,61.29
2022-09-25T11:50:29.619Z,60.08
2022-09-25T11:51:29.609Z,60.68
2022-09-25T11:52:29.605Z,60.08
2022-09-25T11:53:29.601Z,59.88
2022-09-25T11:54:34.197Z,59.88
2022-09-25T11:55:30.566Z,59.98
2022-09-25T11:56:32.785Z,59.60
2022-09-25T11:57:34.261Z,60.18
2022-09-25T11:58:30.544Z,60.08
2022-09-25T11:59:29.534Z,59.88
2022-09-25T12:00:29.512Z,59.47
2022-09-25T12:01:29.617Z,59.27
2022-09-25T12:02:29.531Z,59.38
2022-09-25T12:03:29.494Z,58.37
2022-09-25T12:04:29.474Z,58.17
2022-09-25T12:05:29.457Z,58.27
2022-09-25T12:06:29.448Z,58.44
2022-09-25T12:07:29.436Z,58.54
2022-09-25T12:08:29.462Z,58.44
2022-09-25T12:09:29.458Z,58.62
2022-09-25T12:10:29.407Z,58.62
2022-09-25T12:11:29.391Z,57.61
2022-09-25T12:12:29.379Z,57.11
2022-09-25T12:13:29.398Z,56.41
2022-09-25T12:14:29.357Z,55.91
2022-09-25T12:15:29.349Z,57.21
2022-09-25T12:16:29.408Z,56.61
2022-09-25T12:17:29.328Z,56.71
2022-09-25T12:18:39.882Z,57.21
2022-09-25T12:19:29.301Z,57.01
2022-09-25T12:20:29.290Z,57.41
2022-09-25T12:21:29.280Z,57.31
2022-09-25T12:22:29.268Z,57.21
2022-09-25T12:23:29.331Z,57.11
2022-09-25T12:24:32.799Z,57.01
2022-09-25T12:25:29.236Z,57.21
2022-09-25T12:26:29.224Z,57.21
2022-09-25T12:27:29.215Z,56.61
2022-09-25T12:28:29.233Z,56.21
2022-09-25T12:29:29.297Z,56.01
2022-09-25T12:30:29.224Z,56.03
2022-09-25T12:31:29.230Z,56.71
2022-09-25T12:32:29.162Z,56.41
2022-09-25T12:33:29.157Z,56.51
2022-09-25T12:34:29.137Z,56.10
2022-09-25T12:35:29.128Z,56.01
2022-09-25T12:36:29.119Z,56.41
2022-09-25T12:37:29.109Z,55.60
2022-09-25T12:38:29.107Z,55.51
2022-09-25T12:39:29.087Z,55.40
2022-09-25T12:40:29.118Z,55.51
2022-09-25T12:41:29.065Z,55.83
2022-09-25T12:42:29.051Z,56.84
2022-09-25T12:43:29.065Z,56.13
2022-09-25T12:44:29.041Z,56.23
2022-09-25T12:45:29.039Z,56.23
2022-09-25T12:46:29.007Z,56.13
2022-09-25T12:47:29.014Z,56.84
2022-09-25T12:48:29.000Z,57.14
2022-09-25T12:49:28.981Z,56.74
2022-09-25T12:50:28.965Z,56.93
2022-09-25T12:51:28.958Z,57.44
2022-09-25T12:52:28.945Z,57.26